Time;durP1;ratioP1;P1;durP2;ratioP2;P2;SDS_P1;SDS_P2;PMS_P1;PMS_P2;Temp;Humidity;BMP_temperature;BMP_pressure;BME280_temperature;BME280_humidity;BME280_pressure;Samples;Min_cycle;Max_cycle;Signal;HPM_P1;HPM_P2
2023/06/13 00:00:03;;;;;;;3.90;2.00;;;20.10;67.70;;;;;;4838660;29;20061;-61
2023/06/13 00:02:58;;;;;;;7.30;1.70;;;20.10;68.30;;;;;;4858388;29;20052;-61
2023/06/13 00:05:27;;;;;;;4.57;1.63;;;20.00;67.60;;;;;;4894396;29;20056;-62
2023/06/13 00:07:58;;;;;;;4.43;1.92;;;20.00;67.50;;;;;;4904784;29;20028;-60
2023/06/13 00:10:25;;;;;;;3.60;1.95;;;20.00;68.00;;;;;;4909690;29;20040;-60
2023/06/13 00:12:54;;;;;;;4.22;1.88;;;20.00;67.20;;;;;;4951960;28;20093;-61
2023/06/13 00:15:20;;;;;;;3.88;1.85;;;20.00;66.70;;;;;;4953252;28;20089;-61
2023/06/13 00:18:30;;;;;;;3.15;1.40;;;20.00;66.40;;;;;;4964505;28;20154;-61
2023/06/13 00:20:58;;;;;;;3.20;1.50;;;20.00;66.40;;;;;;4970437;28;20042;-61
2023/06/13 00:23:49;;;;;;;5.57;1.85;;;19.90;66.90;;;;;;4970927;28;20062;-61
2023/06/13 00:26:20;;;;;;;1.85;1.20;;;20.00;66.80;;;;;;4967207;28;20051;-61
2023/06/13 00:29:28;;;;;;;4.63;1.65;;;19.90;66.90;;;;;;4968125;28;20043;-61
2023/06/13 00:32:42;;;;;;;3.00;1.50;;;19.90;67.40;;;;;;4963252;28;20043;-61
2023/06/13 00:35:15;;;;;;;;;;;19.90;67.60;;;;;;4955226;28;20045;-61
2023/06/13 00:37:50;;;;;;;4.68;2.00;;;19.90;67.60;;;;;;4970865;28;19910;-61
2023/06/13 00:40:32;;;;;;;3.45;1.67;;;20.10;68.00;;;;;;4971506;28;20121;-61
2023/06/13 00:43:00;;;;;;;3.50;1.55;;;20.10;68.60;;;;;;4963698;28;20027;-61
2023/06/13 00:45:31;;;;;;;2.60;1.10;;;19.90;67.70;;;;;;4968644;28;20541;-61
2023/06/13 01:07:10;;;;;;;3.20;1.73;;;20.10;66.00;;;;;;4921041;29;20114;-61
2023/06/13 01:09:36;;;;;;;5.20;1.63;;;20.00;66.30;;;;;;4929325;28;20046;-61
2023/06/13 01:12:32;;;;;;;3.20;1.20;;;19.90;66.90;;;;;;4923825;29;20047;-61
2023/06/13 01:15:08;;;;;;;2.78;1.27;;;19.80;67.70;;;;;;4955069;28;20074;-61
2023/06/13 01:17:43;;;;;;;2.17;1.27;;;19.80;68.30;;;;;;4970107;28;20030;-61
2023/06/13 01:20:14;;;;;;;4.28;1.58;;;19.70;67.10;;;;;;4966853;28;20026;-63
2023/06/13 01:23:14;;;;;;;2.80;1.27;;;19.80;68.90;;;;;;4965070;28;20038;-62
2023/06/13 01:25:47;;;;;;;5.47;2.17;;;19.80;68.70;;;;;;4953753;28;20508;-61
2023/06/13 01:28:14;;;;;;;2.20;1.30;;;19.70;67.50;;;;;;4954202;28;20026;-62
2023/06/13 02:33:14;;;;;;;2.80;1.48;;;19.60;67.30;;;;;;4965658;28;20030;-62
2023/06/13 02:35:45;;;;;;;2.40;1.50;;;19.50;66.80;;;;;;4939093;28;20038;-61
2023/06/13 02:38:11;;;;;;;2.35;1.38;;;19.40;67.10;;;;;;4972972;28;20039;-61
2023/06/13 02:40:38;;;;;;;2.40;1.60;;;19.30;67.00;;;;;;4967914;28;20039;-61
2023/06/13 02:43:04;;;;;;;2.45;1.30;;;19.40;67.50;;;;;;4958933;28;20498;-61
2023/06/13 02:45:30;;;;;;;5.47;2.08;;;19.30;67.10;;;;;;4954695;28;20370;-61
2023/06/13 02:47:56;;;;;;;2.45;1.25;;;19.40;68.10;;;;;;4965677;28;20043;-62
2023/06/13 02:50:22;;;;;;;2.40;1.30;;;19.20;68.10;;;;;;4962144;28;20118;-61
2023/06/13 02:52:48;;;;;;;2.38;1.42;;;19.10;68.00;;;;;;4965905;28;20082;-62
2023/06/13 02:55:14;;;;;;;3.85;1.60;;;19.00;68.30;;;;;;4973136;28;20417;-62
2023/06/13 02:57:40;;;;;;;2.90;1.67;;;19.00;68.60;;;;;;4972718;28;20031;-61
2023/06/13 03:00:11;;;;;;;5.03;1.42;;;19.00;68.60;;;;;;4972846;28;20478;-62
2023/06/13 03:02:37;;;;;;;4.40;1.73;;;19.00;68.90;;;;;;4962819;28;20573;-61
2023/06/13 03:05:08;;;;;;;4.15;1.42;;;18.90;69.90;;;;;;4952508;28;20027;-62
2023/06/13 03:07:34;;;;;;;1.80;1.13;;;19.00;69.70;;;;;;4960049;28;20739;-62
2023/06/13 03:10:04;;;;;;;4.30;1.52;;;19.00;69.70;;;;;;4972730;28;20077;-62
2023/06/13 03:12:30;;;;;;;4.90;1.60;;;18.90;69.80;;;;;;4967918;28;20406;-62
2023/06/13 03:14:56;;;;;;;3.88;1.30;;;18.80;69.60;;;;;;4968226;28;20566;-62
2023/06/13 03:17:23;;;;;;;3.53;1.88;;;18.80;70.40;;;;;;4972089;28;20031;-62
2023/06/13 03:19:50;;;;;;;3.75;1.48;;;18.70;70.10;;;;;;4965611;28;20106;-62
2023/06/13 03:22:16;;;;;;;2.72;1.38;;;18.70;70.60;;;;;;4965156;28;20022;-62
2023/06/13 03:24:42;;;;;;;4.15;2.28;;;18.60;70.40;;;;;;4972824;28;20033;-62
2023/06/13 03:27:09;;;;;;;4.68;1.92;;;18.60;70.50;;;;;;4965122;28;20033;-62
2023/06/13 03:29:35;;;;;;;2.88;1.35;;;18.50;70.30;;;;;;4973375;28;20557;-62
2023/06/13 03:32:01;;;;;;;2.38;1.35;;;18.50;70.80;;;;;;4964647;28;20043;-62
2023/06/13 03:34:28;;;;;;;2.80;1.42;;;18.60;70.60;;;;;;4972732;28;20121;-62
2023/06/13 03:36:54;;;;;;;17.10;4.47;;;18.40;71.40;;;;;;4963593;28;20513;-62
2023/06/13 03:39:20;;;;;;;14.10;2.40;;;18.50;74.20;;;;;;4973020;28;20113;-62
2023/06/13 03:41:46;;;;;;;3.92;1.60;;;18.50;73.20;;;;;;4965282;28;20123;-62
2023/06/13 03:44:12;;;;;;;3.85;1.67;;;18.30;71.90;;;;;;4969401;28;20027;-62
2023/06/13 03:46:37;;;;;;;3.78;1.35;;;18.30;72.00;;;;;;4962894;28;20051;-62
2023/06/13 03:49:03;;;;;;;3.45;1.17;;;18.40;71.80;;;;;;4955574;28;20023;-62
2023/06/13 03:51:29;;;;;;;3.08;1.50;;;18.50;71.70;;;;;;4962734;28;20034;-62
2023/06/13 03:53:55;;;;;;;2.88;1.17;;;18.50;71.60;;;;;;4968159;28;20106;-62
2023/06/13 03:56:21;;;;;;;3.25;1.20;;;18.50;71.70;;;;;;4968214;28;20110;-62
2023/06/13 03:58:47;;;;;;;3.63;1.55;;;18.40;71.50;;;;;;4968130;28;20089;-61
2023/06/13 04:01:12;;;;;;;1.70;1.00;;;18.40;72.00;;;;;;4961583;28;20031;-61
2023/06/13 04:03:39;;;;;;;2.13;1.52;;;18.40;71.60;;;;;;4935863;29;20078;-62
2023/06/13 04:06:08;;;;;;;3.08;1.67;;;18.30;72.00;;;;;;4962430;28;20512;-61
2023/06/13 04:08:38;;;;;;;5.68;1.45;;;18.40;72.60;;;;;;4966307;28;20031;-61
2023/06/13 04:11:04;;;;;;;2.22;1.10;;;18.50;71.60;;;;;;4965504;28;20058;-61
2023/06/13 04:13:30;;;;;;;2.90;1.70;;;18.60;72.30;;;;;;4967321;28;20035;-62
2023/06/13 04:15:56;;;;;;;2.53;1.20;;;18.60;71.40;;;;;;4966973;28;20033;-61
2023/06/13 04:18:23;;;;;;;4.25;1.95;;;18.60;71.80;;;;;;4964389;28;20063;-61
2023/06/13 04:20:52;;;;;;;3.90;1.35;;;18.70;72.10;;;;;;4971569;28;20027;-61
2023/06/13 04:23:19;;;;;;;12.57;1.60;;;18.70;71.80;;;;;;4970926;28;20027;-61
2023/06/13 04:25:45;;;;;;;3.92;1.88;;;18.70;71.30;;;;;;4964440;28;20024;-61
2023/06/13 04:28:13;;;;;;;5.40;1.65;;;18.70;71.40;;;;;;4954197;28;20111;-61
2023/06/13 04:30:46;;;;;;;2.15;1.38;;;18.70;71.50;;;;;;4969441;28;20114;-61
2023/06/13 04:33:16;;;;;;;2.78;1.42;;;18.70;72.50;;;;;;4964056;28;20170;-61
2023/06/13 04:35:44;;;;;;;2.00;1.15;;;18.60;71.40;;;;;;4970768;28;20046;-61
2023/06/13 04:38:16;;;;;;;4.18;1.50;;;18.70;72.70;;;;;;4970896;28;20443;-61
2023/06/13 04:40:42;;;;;;;2.92;1.15;;;18.70;71.90;;;;;;4949779;28;20642;-61
2023/06/13 04:43:09;;;;;;;2.47;1.40;;;18.80;71.50;;;;;;4961034;28;20031;-61
2023/06/13 04:45:36;;;;;;;3.08;1.48;;;18.80;71.60;;;;;;4971011;28;20030;-61
2023/06/13 04:48:03;;;;;;;4.20;1.80;;;18.70;71.50;;;;;;4970278;28;20026;-61
2023/06/13 04:50:29;;;;;;;3.33;1.67;;;18.80;71.90;;;;;;4971003;28;20186;-61
2023/06/13 04:52:56;;;;;;;4.32;1.50;;;18.90;71.80;;;;;;4979176;23;20045;-64
2023/06/13 04:55:23;;;;;;;3.58;1.40;;;18.80;71.80;;;;;;4974970;28;20030;-65
2023/06/13 04:57:48;;;;;;;4.07;1.58;;;18.80;71.80;;;;;;4989218;28;20026;-65
2023/06/13 05:00:15;;;;;;;3.42;1.48;;;18.90;72.40;;;;;;4991277;28;20053;-65
2023/06/13 05:02:42;;;;;;;2.50;1.60;;;19.00;72.40;;;;;;4996357;28;20030;-65
2023/06/13 05:05:08;;;;;;;3.38;1.80;;;19.00;71.70;;;;;;4980333;28;20049;-65
2023/06/13 05:07:39;;;;;;;2.55;1.65;;;19.10;71.20;;;;;;4974046;28;20109;-65
2023/06/13 05:10:05;;;;;;;3.13;1.27;;;19.20;71.10;;;;;;4980746;28;20034;-63
2023/06/13 05:12:31;;;;;;;2.70;1.30;;;19.20;71.00;;;;;;4984644;28;20038;-64
2023/06/13 05:14:56;;;;;;;4.18;1.70;;;19.10;71.40;;;;;;4958134;28;20041;-63
2023/06/13 05:17:22;;;;;;;3.80;1.33;;;19.10;71.90;;;;;;4991110;28;20041;-63
2023/06/13 05:19:48;;;;;;;4.35;1.20;;;19.20;73.90;;;;;;4951304;28;20027;-56
2023/06/13 05:22:15;;;;;;;3.28;1.75;;;19.20;71.60;;;;;;4988949;28;20526;-58
2023/06/13 05:24:41;;;;;;;3.03;1.50;;;19.30;72.60;;;;;;4980808;28;20117;-60
2023/06/13 05:27:07;;;;;;;2.20;1.30;;;19.40;72.50;;;;;;4990204;28;20065;-60
2023/06/13 05:29:33;;;;;;;2.97;1.40;;;19.30;73.00;;;;;;4981717;28;20026;-60
2023/06/13 05:31:59;;;;;;;3.42;1.60;;;19.40;72.20;;;;;;4977107;28;20030;-60
2023/06/13 05:34:26;;;;;;;8.60;2.38;;;19.60;71.80;;;;;;4972655;28;20490;-59
2023/06/13 05:36:53;;;;;;;2.85;1.38;;;19.60;71.30;;;;;;4983002;28;20034;-61
2023/06/13 05:39:19;;;;;;;7.10;1.48;;;19.60;71.30;;;;;;4990562;28;20549;-61
2023/06/13 05:41:44;;;;;;;1.58;0.98;;;19.60;71.40;;;;;;4968747;28;20042;-60
2023/06/13 05:44:13;;;;;;;3.63;1.38;;;19.70;70.90;;;;;;4984142;28;20797;-61
2023/06/13 05:46:38;;;;;;;4.55;1.35;;;19.60;70.20;;;;;;4985174;28;20324;-61
2023/06/13 05:49:04;;;;;;;7.35;1.65;;;19.60;69.90;;;;;;4973400;28;20038;-61
2023/06/13 05:51:31;;;;;;;4.18;1.27;;;19.80;69.70;;;;;;4982864;28;20031;-61
2023/06/13 05:53:57;;;;;;;1.88;1.25;;;19.80;68.90;;;;;;4990560;28;20510;-61
2023/06/13 05:56:23;;;;;;;3.58;1.23;;;19.80;68.40;;;;;;4968188;28;20049;-60
2023/06/13 05:58:50;;;;;;;3.53;1.55;;;20.00;68.50;;;;;;4990795;28;20034;-59
2023/06/13 06:01:16;;;;;;;3.97;1.50;;;20.00;68.50;;;;;;4966467;28;20101;-59
2023/06/13 06:03:41;;;;;;;2.60;0.90;;;20.00;66.50;;;;;;4990640;28;20169;-60
2023/06/13 06:06:07;;;;;;;2.83;1.17;;;20.00;67.30;;;;;;4983577;28;20042;-60
2023/06/13 06:08:33;;;;;;;2.70;1.15;;;20.00;67.80;;;;;;4994001;28;20498;-55
2023/06/13 06:10:58;;;;;;;4.57;2.05;;;19.90;66.80;;;;;;4983855;28;20086;-56
2023/06/13 06:13:24;;;;;;;4.53;1.60;;;19.90;66.80;;;;;;4973473;28;20026;-60
2023/06/13 06:15:50;;;;;;;2.03;1.20;;;19.90;66.90;;;;;;4987646;28;20031;-61
2023/06/13 06:18:18;;;;;;;2.92;1.73;;;19.90;66.90;;;;;;4975313;28;20482;-60
2023/06/13 06:20:45;;;;;;;3.03;1.50;;;19.80;65.70;;;;;;4989195;28;20405;-61
2023/06/13 06:23:12;;;;;;;4.15;1.60;;;19.80;65.20;;;;;;4991379;28;20030;-60
2023/06/13 06:25:38;;;;;;;2.58;1.48;;;19.80;66.20;;;;;;4990300;28;20049;-60
2023/06/13 06:28:04;;;;;;;5.25;1.20;;;19.90;66.60;;;;;;4989639;28;20653;-60
2023/06/13 06:30:30;;;;;;;2.63;1.65;;;20.00;65.90;;;;;;4992234;28;20041;-61
2023/06/13 06:32:56;;;;;;;3.05;1.63;;;20.00;66.10;;;;;;4987516;28;20030;-61
2023/06/13 06:35:21;;;;;;;6.43;2.03;;;20.00;65.50;;;;;;4993443;28;20030;-60
2023/06/13 06:37:47;;;;;;;2.83;1.30;;;19.90;65.10;;;;;;4985805;28;20066;-61
2023/06/13 06:40:13;;;;;;;4.28;1.42;;;19.90;65.20;;;;;;4976624;28;20095;-60
2023/06/13 06:42:39;;;;;;;3.38;1.33;;;19.90;65.20;;;;;;4968001;28;20050;-61
2023/06/13 06:45:06;;;;;;;1.50;0.93;;;20.00;65.20;;;;;;4967343;28;20063;-60
2023/06/13 06:47:32;;;;;;;3.65;1.33;;;20.10;65.50;;;;;;4980765;28;20100;-60
2023/06/13 06:49:57;;;;;;;5.20;1.98;;;20.10;64.80;;;;;;4993603;28;20034;-60
2023/06/13 06:52:23;;;;;;;3.40;1.50;;;20.20;65.30;;;;;;4979603;28;20053;-61
2023/06/13 06:54:49;;;;;;;5.45;1.65;;;20.20;65.00;;;;;;4993201;28;20065;-61
2023/06/13 06:57:14;;;;;;;3.58;1.63;;;20.30;65.20;;;;;;4985833;28;20030;-61
2023/06/13 06:59:40;;;;;;;2.35;1.35;;;20.30;65.20;;;;;;4993608;28;20045;-61
2023/06/13 07:02:06;;;;;;;2.75;1.10;;;20.30;65.70;;;;;;4985573;28;20037;-61
2023/06/13 07:04:32;;;;;;;3.83;1.27;;;20.40;65.20;;;;;;4992491;28;20042;-60
2023/06/13 07:06:58;;;;;;;2.58;1.33;;;20.50;65.40;;;;;;4985200;28;20402;-59
2023/06/13 07:09:24;;;;;;;6.28;1.42;;;20.60;65.10;;;;;;4992692;28;20026;-59
2023/06/13 07:11:50;;;;;;;3.38;1.92;;;20.70;64.70;;;;;;4982941;28;20037;-59
2023/06/13 07:14:16;;;;;;;4.38;1.50;;;20.80;63.70;;;;;;4986360;28;20797;-61
2023/06/13 07:16:42;;;;;;;3.50;1.40;;;20.90;64.60;;;;;;4984745;28;20133;-69
2023/06/13 07:19:09;;;;;;;1.98;1.23;;;20.90;64.20;;;;;;4974243;28;20475;-71
2023/06/13 07:21:35;;;;;;;2.13;1.10;;;21.00;63.30;;;;;;4970674;28;20030;-68
2023/06/13 07:24:01;;;;;;;4.35;1.60;;;20.90;62.40;;;;;;4992305;28;20088;-69
2023/06/13 07:26:27;;;;;;;2.33;1.15;;;20.90;63.60;;;;;;4970061;28;20030;-71
2023/06/13 07:28:53;;;;;;;3.05;1.48;;;21.10;63.40;;;;;;4992592;28;20123;-72
2023/06/13 07:31:19;;;;;;;4.07;1.50;;;21.20;63.80;;;;;;4959028;28;20124;-71
2023/06/13 07:33:44;;;;;;;5.43;1.77;;;21.20;62.10;;;;;;4967240;28;20037;-70
2023/06/13 07:36:10;;;;;;;3.17;1.45;;;21.20;62.00;;;;;;4992210;28;20088;-69
2023/06/13 07:38:36;;;;;;;2.15;1.20;;;21.20;62.30;;;;;;4975138;28;20030;-69
2023/06/13 07:41:02;;;;;;;2.38;1.27;;;21.20;62.20;;;;;;4942768;28;20046;-69
2023/06/13 07:43:27;;;;;;;1.80;1.17;;;21.30;62.50;;;;;;4965320;28;20031;-69
2023/06/13 07:45:53;;;;;;;2.78;1.40;;;21.30;62.50;;;;;;4984089;28;20037;-73
2023/06/13 07:48:19;;;;;;;2.45;1.20;;;21.40;62.50;;;;;;4962549;28;20023;-72
2023/06/13 07:50:45;;;;;;;4.03;1.38;;;21.60;62.90;;;;;;4953104;28;20026;-72
2023/06/13 07:53:11;;;;;;;2.45;1.35;;;21.70;62.80;;;;;;4950240;28;20116;-72
2023/06/13 07:55:37;;;;;;;1.95;1.10;;;21.70;62.40;;;;;;4953771;28;20066;-71
2023/06/13 07:58:03;;;;;;;3.17;1.38;;;21.90;62.30;;;;;;4936150;28;20123;-71
2023/06/13 08:00:30;;;;;;;2.28;1.33;;;21.90;61.60;;;;;;4950466;28;20034;-71
2023/06/13 08:02:57;;;;;;;2.83;1.33;;;22.00;61.60;;;;;;4931392;28;20035;-69
2023/06/13 08:05:23;;;;;;;3.47;1.35;;;22.00;61.80;;;;;;4934146;28;20035;-69
2023/06/13 08:07:50;;;;;;;2.00;1.27;;;22.10;61.30;;;;;;4948238;28;20042;-69
2023/06/13 08:10:16;;;;;;;2.95;1.23;;;22.20;61.60;;;;;;4949068;28;20043;-70
2023/06/13 08:12:42;;;;;;;3.85;1.70;;;22.30;61.10;;;;;;4927772;28;20041;-70
2023/06/13 08:15:08;;;;;;;3.25;1.45;;;22.50;59.90;;;;;;4948763;28;20045;-70
2023/06/13 08:17:36;;;;;;;2.88;1.40;;;22.60;59.40;;;;;;4949632;28;20066;-69
2023/06/13 08:20:04;;;;;;;3.15;1.70;;;22.70;59.50;;;;;;4940569;28;20031;-70
2023/06/13 08:22:29;;;;;;;3.92;1.40;;;22.50;60.30;;;;;;4932248;28;20034;-70
2023/06/13 08:24:56;;;;;;;2.30;1.42;;;22.70;59.40;;;;;;4949630;28;20395;-71
2023/06/13 08:27:22;;;;;;;11.93;1.70;;;22.90;58.70;;;;;;4931983;28;20058;-71
2023/06/13 08:29:47;;;;;;;2.38;1.50;;;23.10;59.00;;;;;;4949657;28;20608;-71
2023/06/13 08:32:13;;;;;;;2.45;1.30;;;23.10;58.20;;;;;;4949360;28;20434;-71
2023/06/13 08:34:39;;;;;;;2.92;1.30;;;22.80;57.40;;;;;;4948339;28;20054;-70
2023/06/13 08:37:05;;;;;;;2.60;1.17;;;22.80;57.70;;;;;;4937841;28;20264;-71
2023/06/13 08:39:31;;;;;;;3.20;1.67;;;22.70;58.40;;;;;;4990535;28;20547;-70
2023/06/13 08:41:58;;;;;;;2.38;1.30;;;22.60;58.60;;;;;;4988714;28;20030;-70
2023/06/13 08:44:25;;;;;;;2.45;1.30;;;22.90;57.50;;;;;;4975326;28;20026;-70
2023/06/13 08:46:51;;;;;;;13.57;3.00;;;22.90;58.40;;;;;;4957950;28;20031;-70
2023/06/13 08:49:17;;;;;;;6.25;1.60;;;22.90;58.10;;;;;;4989912;28;20477;-70
2023/06/13 08:51:46;;;;;;;2.92;1.50;;;23.00;57.50;;;;;;4967924;28;20033;-70
2023/06/13 08:54:14;;;;;;;2.92;1.40;;;23.10;58.30;;;;;;4961629;28;20042;-70
2023/06/13 08:56:40;;;;;;;3.55;1.73;;;23.20;56.70;;;;;;4956369;28;20038;-69
2023/06/13 09:05:50;;;;;;;3.28;1.30;;;23.40;56.50;;;;;;4984578;28;20038;-67
2023/06/13 09:08:18;;;;;;;3.30;1.40;;;23.70;55.80;;;;;;4973815;28;20070;-67
2023/06/13 09:10:44;;;;;;;3.80;1.48;;;23.80;55.50;;;;;;4978257;28;20481;-68
2023/06/13 09:13:12;;;;;;;2.50;1.10;;;23.80;56.00;;;;;;4975916;28;20051;-68
2023/06/13 09:15:39;;;;;;;2.72;1.35;;;23.80;55.80;;;;;;4962291;28;20022;-68
2023/06/13 09:18:05;;;;;;;2.72;1.60;;;24.00;55.60;;;;;;4962961;28;20272;-68
2023/06/13 09:20:31;;;;;;;3.53;1.33;;;24.10;54.00;;;;;;4957151;28;20038;-68
2023/06/13 09:22:58;;;;;;;2.17;1.25;;;23.90;54.40;;;;;;4976932;28;20465;-72
2023/06/13 09:25:26;;;;;;;3.22;1.67;;;24.10;55.10;;;;;;4963515;28;20118;-72
2023/06/13 09:27:52;;;;;;;3.40;1.63;;;24.30;54.00;;;;;;4964397;28;20046;-73
2023/06/13 09:30:18;;;;;;;2.42;1.38;;;24.50;53.90;;;;;;4966188;28;20030;-73
2023/06/13 09:32:51;;;;;;;4.10;1.38;;;24.60;53.50;;;;;;4979000;28;20497;-73
2023/06/13 09:35:17;;;;;;;2.72;1.27;;;24.40;53.20;;;;;;4960796;28;20038;-73
2023/06/13 09:37:45;;;;;;;2.60;1.50;;;24.50;54.30;;;;;;4983356;28;20031;-74
2023/06/13 09:40:13;;;;;;;3.72;1.85;;;24.60;54.30;;;;;;4978483;28;20117;-73
2023/06/13 09:42:43;;;;;;;5.25;1.48;;;24.50;54.00;;;;;;4970066;28;20206;-73
2023/06/13 09:45:09;;;;;;;2.33;1.35;;;24.60;53.90;;;;;;4964695;28;20114;-74
2023/06/13 09:47:35;;;;;;;2.42;1.38;;;24.70;54.30;;;;;;4985718;28;20290;-72
2023/06/13 09:50:02;;;;;;;2.88;1.13;;;24.70;54.80;;;;;;4980289;28;20068;-73
2023/06/13 09:52:32;;;;;;;5.25;1.63;;;24.60;53.40;;;;;;4984320;28;20031;-72
2023/06/13 09:54:58;;;;;;;2.55;1.60;;;24.90;53.00;;;;;;4980962;28;20104;-73
2023/06/13 09:57:24;;;;;;;1.75;1.00;;;25.00;53.20;;;;;;4966614;28;20471;-71
2023/06/13 09:59:51;;;;;;;3.15;1.17;;;25.00;53.40;;;;;;4964604;28;20497;-73
2023/06/13 10:02:22;;;;;;;2.53;1.55;;;25.00;53.20;;;;;;4982485;28;20055;-72
2023/06/13 10:04:54;;;;;;;4.63;1.75;;;25.00;53.00;;;;;;4981591;28;20425;-72
2023/06/13 10:07:20;;;;;;;3.67;1.60;;;25.20;54.10;;;;;;4971232;28;20031;-72
2023/06/13 10:09:46;;;;;;;4.40;1.77;;;25.30;53.90;;;;;;4958717;28;20401;-72
2023/06/13 10:12:20;;;;;;;5.30;1.42;;;25.50;53.10;;;;;;4972157;28;20114;-72
2023/06/13 10:14:56;;;;;;;5.13;1.40;;;25.30;53.10;;;;;;4982205;28;20077;-71
2023/06/13 10:17:23;;;;;;;4.07;1.50;;;25.50;53.40;;;;;;4966736;28;20447;-72
2023/06/13 10:20:05;;;;;;;8.50;1.83;;;25.60;53.10;;;;;;4964592;28;20110;-72
2023/06/13 10:22:31;;;;;;;3.47;1.52;;;25.70;52.90;;;;;;4966929;28;20027;-70
2023/06/13 10:24:58;;;;;;;2.80;1.42;;;25.70;51.80;;;;;;4977157;28;20030;-58
2023/06/13 10:27:25;;;;;;;2.70;1.42;;;25.80;52.90;;;;;;4953615;28;20019;-56
2023/06/13 10:30:09;;;;;;;2.65;1.40;;;26.00;54.00;;;;;;4952500;28;20027;-61
2023/06/13 10:33:19;;;;;;;3.85;1.67;;;26.00;52.80;;;;;;4975965;28;20027;-54
2023/06/13 10:36:11;;;;;;;2.40;1.40;;;26.10;52.80;;;;;;4952973;28;20058;-72
2023/06/13 10:38:59;;;;;;;3.42;1.75;;;26.10;53.90;;;;;;4952045;28;20128;-72
2023/06/13 10:42:04;;;;;;;2.60;1.38;;;26.20;53.00;;;;;;4963700;28;20114;-72
2023/06/13 10:44:56;;;;;;;3.13;1.50;;;26.40;52.30;;;;;;4973826;28;20032;-73
2023/06/13 10:47:22;;;;;;;3.70;1.80;;;26.50;52.10;;;;;;4980437;28;20042;-71
2023/06/13 10:49:51;;;;;;;3.20;1.77;;;26.60;51.50;;;;;;4970143;28;20033;-73
2023/06/13 10:52:19;;;;;;;3.25;1.63;;;26.50;52.10;;;;;;4964761;28;20568;-72
2023/06/13 10:54:58;;;;;;;5.60;1.98;;;26.40;52.30;;;;;;4960026;28;20077;-72
2023/06/13 10:57:48;;;;;;;5.05;2.03;;;26.70;52.50;;;;;;4987930;28;20031;-72
2023/06/13 11:00:35;;;;;;;2.47;1.30;;;27.00;52.70;;;;;;4973929;28;20097;-73
2023/06/13 11:03:06;;;;;;;3.13;1.33;;;27.00;51.30;;;;;;4969366;28;20035;-72
2023/06/13 11:05:44;;;;;;;2.65;1.38;;;27.10;50.70;;;;;;4958290;28;20026;-72
2023/06/13 11:08:15;;;;;;;3.17;1.60;;;26.80;52.10;;;;;;4985687;28;20041;-72
2023/06/13 11:10:44;;;;;;;4.07;1.92;;;27.00;52.10;;;;;;4968997;28;20485;-74
2023/06/13 11:13:22;;;;;;;3.45;1.80;;;27.30;51.70;;;;;;4982567;28;20047;-73
2023/06/13 11:15:50;;;;;;;3.28;1.35;;;27.30;51.10;;;;;;4955128;28;20031;-72
2023/06/13 11:18:18;;;;;;;2.67;1.55;;;27.40;50.60;;;;;;4965431;28;20430;-73
2023/06/13 11:20:55;;;;;;;3.17;1.50;;;27.50;50.10;;;;;;4984898;28;20576;-73
2023/06/13 11:23:33;;;;;;;3.90;1.85;;;27.70;50.30;;;;;;4966174;28;20090;-72
2023/06/13 11:25:59;;;;;;;2.97;1.27;;;27.50;49.10;;;;;;4984622;28;20485;-72
2023/06/13 11:28:24;;;;;;;3.28;1.38;;;27.50;49.60;;;;;;4970577;28;20037;-73
2023/06/13 11:30:52;;;;;;;2.13;1.42;;;27.50;49.20;;;;;;4960888;28;20031;-75
2023/06/13 11:33:19;;;;;;;3.33;1.67;;;27.60;49.50;;;;;;4960679;28;20030;-74
2023/06/13 11:35:56;;;;;;;3.25;1.70;;;27.60;50.00;;;;;;4952312;28;20078;-73
2023/06/13 11:38:31;;;;;;;2.25;1.30;;;27.90;50.50;;;;;;4956298;28;20311;-73
2023/06/13 11:40:57;;;;;;;2.88;1.50;;;28.30;49.80;;;;;;4962236;28;20049;-73
2023/06/13 11:43:30;;;;;;;3.70;1.80;;;28.10;49.20;;;;;;4981922;28;20034;-72
2023/06/13 11:46:03;;;;;;;3.58;1.42;;;28.50;49.00;;;;;;4980529;28;20572;-72
2023/06/13 11:48:30;;;;;;;4.53;1.73;;;28.60;48.30;;;;;;4959819;28;20031;-73
2023/06/13 11:51:13;;;;;;;3.10;1.48;;;28.60;48.10;;;;;;4950371;28;20041;-73
2023/06/13 11:53:48;;;;;;;4.70;1.20;;;28.40;46.70;;;;;;4969263;28;20084;-73
2023/06/13 11:56:17;;;;;;;2.45;1.17;;;28.30;46.90;;;;;;4981050;28;20042;-73
2023/06/13 11:58:45;;;;;;;2.83;1.52;;;28.50;48.40;;;;;;4982733;28;20037;-72
2023/06/13 12:01:13;;;;;;;6.85;1.30;;;28.80;47.10;;;;;;4949262;28;20047;-72
2023/06/13 12:03:40;;;;;;;3.45;1.50;;;29.20;47.80;;;;;;4944421;28;20027;-72
2023/06/13 12:06:07;;;;;;;5.05;1.83;;;28.80;46.80;;;;;;4961583;28;20458;-59
2023/06/13 12:08:34;;;;;;;2.30;1.27;;;28.40;47.40;;;;;;4984058;28;20022;-72
2023/06/13 12:11:09;;;;;;;3.47;1.60;;;28.40;47.30;;;;;;4971719;28;20121;-73
2023/06/13 12:13:36;;;;;;;3.35;1.63;;;28.80;47.40;;;;;;4981184;28;20042;-71
2023/06/13 12:16:03;;;;;;;3.20;1.35;;;29.00;48.20;;;;;;4958457;28;20039;-72
2023/06/13 12:18:29;;;;;;;3.45;1.33;;;29.00;47.30;;;;;;4951010;28;20027;-72
2023/06/13 12:20:59;;;;;;;4.57;1.60;;;29.30;47.50;;;;;;4972900;28;20044;-72
2023/06/13 12:23:27;;;;;;;3.58;1.65;;;29.60;45.90;;;;;;4965415;28;20023;-72
2023/06/13 12:25:53;;;;;;;3.35;1.55;;;29.60;45.70;;;;;;4975654;28;20042;-72
2023/06/13 12:28:20;;;;;;;3.10;1.35;;;29.80;46.00;;;;;;4979291;28;20023;-73
2023/06/13 12:30:53;;;;;;;4.03;1.52;;;29.80;45.70;;;;;;4977874;28;20038;-73
2023/06/13 12:33:33;;;;;;;3.50;1.88;;;30.00;46.90;;;;;;4964219;28;20027;-73
2023/06/13 12:36:02;;;;;;;3.80;1.48;;;29.40;45.90;;;;;;4970044;28;20403;-72
2023/06/13 12:38:30;;;;;;;2.33;1.25;;;29.90;45.40;;;;;;4965251;28;20039;-73
2023/06/13 12:40:58;;;;;;;6.53;1.60;;;29.90;44.80;;;;;;4957414;28;20138;-72
2023/06/13 12:43:25;;;;;;;4.53;1.50;;;30.30;45.70;;;;;;4950519;28;20062;-72
2023/06/13 12:45:52;;;;;;;2.58;1.42;;;30.40;44.40;;;;;;4954235;28;20116;-72
2023/06/13 12:48:19;;;;;;;1.92;1.02;;;30.10;44.00;;;;;;4963694;28;20038;-72
2023/06/13 12:50:47;;;;;;;16.42;1.73;;;29.80;44.40;;;;;;4975311;28;20117;-72
2023/06/13 12:53:19;;;;;;;3.33;1.42;;;29.60;44.90;;;;;;4955759;28;20038;-73
2023/06/13 12:55:48;;;;;;;3.80;1.70;;;30.10;44.50;;;;;;4975783;28;20105;-71
2023/06/13 12:58:43;;;;;;;6.05;1.45;;;30.20;44.40;;;;;;4953444;28;20026;-72
2023/06/13 13:01:09;;;;;;;1.83;0.90;;;30.20;43.00;;;;;;4960910;28;20050;-73
2023/06/13 13:03:35;;;;;;;4.32;1.27;;;30.70;42.00;;;;;;4972556;28;20370;-72
2023/06/13 13:06:02;;;;;;;2.25;1.25;;;30.70;41.40;;;;;;4965291;28;20485;-72
2023/06/13 13:08:31;;;;;;;5.50;1.83;;;30.60;42.60;;;;;;4974531;28;20086;-71
2023/06/13 13:10:57;;;;;;;1.75;1.13;;;30.60;42.50;;;;;;4982441;28;20593;-72
2023/06/13 13:13:23;;;;;;;2.67;1.25;;;30.80;41.60;;;;;;4957035;28;20042;-73
2023/06/13 13:15:49;;;;;;;2.95;1.52;;;31.20;41.70;;;;;;4981804;28;20026;-72
2023/06/13 13:18:16;;;;;;;1.88;0.98;;;30.80;41.10;;;;;;4972152;28;20050;-71
2023/06/13 13:20:42;;;;;;;7.28;1.35;;;30.50;43.20;;;;;;4982847;28;20137;-71
2023/06/13 13:23:08;;;;;;;3.17;1.85;;;30.50;42.20;;;;;;4957525;28;20086;-71
2023/06/13 13:25:33;;;;;;;15.75;1.67;;;30.30;41.70;;;;;;4981999;28;20022;-70
2023/06/13 13:28:00;;;;;;;5.22;1.67;;;30.20;42.70;;;;;;4956795;28;20428;-72
2023/06/13 13:30:26;;;;;;;3.83;1.17;;;30.20;42.50;;;;;;4974298;28;20441;-69
2023/06/13 13:32:51;;;;;;;2.53;1.25;;;30.70;42.30;;;;;;4983292;28;20505;-68
2023/06/13 13:35:19;;;;;;;2.83;1.38;;;31.50;41.50;;;;;;4971781;28;20035;-70
2023/06/13 13:37:49;;;;;;;2.10;1.20;;;32.00;41.70;;;;;;4960706;28;20065;-70
2023/06/13 13:40:16;;;;;;;4.00;1.00;;;32.00;40.10;;;;;;4973566;28;20039;-70
2023/06/13 13:42:42;;;;;;;3.88;1.23;;;31.90;39.30;;;;;;4985119;28;20520;-70
2023/06/13 13:45:08;;;;;;;3.15;1.60;;;30.80;40.60;;;;;;4971974;28;20066;-70
2023/06/13 13:47:34;;;;;;;2.47;1.27;;;31.80;41.60;;;;;;4987182;28;20031;-69
2023/06/13 13:50:01;;;;;;;1.73;0.93;;;31.90;40.00;;;;;;4969644;28;20073;-69
2023/06/13 13:52:27;;;;;;;1.80;1.05;;;32.00;40.50;;;;;;4958133;28;20023;-70
2023/06/13 13:54:55;;;;;;;2.72;1.05;;;33.00;40.20;;;;;;4971857;28;20034;-70
2023/06/13 13:57:20;;;;;;;2.53;1.20;;;33.50;39.40;;;;;;4967494;28;20042;-71
2023/06/13 13:59:49;;;;;;;3.13;1.20;;;32.60;39.50;;;;;;4962319;28;20042;-71
2023/06/13 14:02:15;;;;;;;2.78;1.10;;;33.20;40.30;;;;;;4956201;28;20624;-70
2023/06/13 14:04:41;;;;;;;4.45;1.77;;;33.00;39.10;;;;;;4977529;28;20026;-70
2023/06/13 14:07:07;;;;;;;1.70;0.88;;;32.60;40.20;;;;;;4968030;28;20045;-69
2023/06/13 14:09:32;;;;;;;4.60;1.20;;;32.70;39.30;;;;;;4975046;28;20081;-70
2023/06/13 14:11:58;;;;;;;2.50;1.02;;;33.10;38.40;;;;;;4973611;28;20053;-70
2023/06/13 14:14:24;;;;;;;6.55;1.77;;;33.40;38.50;;;;;;4940975;28;20046;-70
2023/06/13 14:16:50;;;;;;;5.10;1.95;;;33.20;38.10;;;;;;4959137;28;20023;-70
2023/06/13 14:19:16;;;;;;;2.30;0.90;;;33.80;39.40;;;;;;4950126;28;20561;-70
2023/06/13 14:21:43;;;;;;;2.00;1.27;;;33.50;37.60;;;;;;4975216;28;20066;-71
2023/06/13 14:24:11;;;;;;;1.75;0.93;;;33.50;37.50;;;;;;4951463;28;20114;-71